Aviation Digital Data Service (ADDS)

Output produced by METARs form (0931 UTC 24 March 2019)
found at http://www.aviationweather.gov/metar/data/
 
Forecast for: PKWA (KWAJALEIN/BUCHOL, MH, US)
Text: PKWA 240526Z 2406/2506 06013KT P6SM SCT016 SCT035
Forecast period: 0600 to 1100 UTC 24 March 2019
Forecast type: FROM: standard forecast or significant change
Winds: from the ENE (60 degrees) at 15 MPH (13 knots; 6.7 m/s)
Visibility: 6 or more miles 10+ km)
Ceiling: at least 12,000 feet AGL
Clouds: scattered clouds at 1600 feet AGL
scattered clouds at 3500 feet AGL
Weather: no significant weather forecast for this period
Text: FM241100 08014KT P6SM VCSH SCT015 SCT030 BKN130
Forecast period: 1100 UTC 24 March 2019 to 0600 UTC 25 March 2019
Forecast type: FROM: standard forecast or significant change
Winds: from the E (80 degrees) at 16 MPH (14 knots; 7.2 m/s)
Visibility: 6 or more miles 10+ km)
Ceiling: 13000 feet AGL
Clouds: scattered clouds at 1500 feet AGL
scattered clouds at 3000 feet AGL
broken clouds at 13000 feet AGL
Weather: VCSH  (showers in vicinity)